Arklow Mill — EIJD9 — position and weather

sailwx.info

Track history (hours):
 
Tides and Currents Weather Stations Pressure Air Temp Water Temp Dewpoint Dewpoint Depression Visibility Wind Speed Wind Dir Waves Ship Positions

Arklow Mill

Last reported at 2014-Jul-30 04:31 UTC. Time now 2014-Jul-30 07:04 UTC.
Position N 35°53' W 009°30'.

Length 137 m; draft 8.4 m.

Type: Ship. MMSI: 250002022.

Date/timePositionNaut miles runAvg speedWind from/ knotsBaromVisibWave heightAir tempDewpointWater temp
2014-Jul-30 04:31N 35°53' W 009°30'2711.8
2014-Jul-30 02:12N 36°20' W 009°38'3411.8
2014-Jul-29 23:19N 36°53' W 009°48'2112.0
2014-Jul-29 21:33N 37°13' W 009°52'1212.1
2014-Jul-29 20:32N 37°26' W 009°54'1212.2
2014-Jul-29 19:33N 37°38' W 009°56'1412.3
2014-Jul-29 18:26N 37°51' W 009°58'1112.2
2014-Jul-29 17:32N 38°02' W 009°60'2511.8
2014-Jul-29 15:27N 38°27' W 010°04'  
2014-Jul-26 15:33N 49°55' W 001°54'1614.5
2014-Jul-26 14:27N 49°51' W 001°30'1615.8
2014-Jul-26 13:26N 49°46' W 001°06'1314.5
2014-Jul-26 12:33N 49°41' W 000°48'1313.1
2014-Jul-26 11:34N 49°36' W 000°30'1211.8
2014-Jul-26 10:34N 49°31' W 000°13'1111.1
2014-Jul-26 09:33N 49°27' E 000°03'1111.5
2014-Jul-26 08:33N 49°26' E 000°20'8 7.6
2014-Jul-26 07:30N 49°28' E 000°32'5 0.1
2014-Jul-24 06:33N 49°28' E 000°40'1010.5
2014-Jul-24 05:33N 49°27' E 000°24'1313.0
2014-Jul-24 04:33N 49°26' E 000°04'6 5.5
2014-Jul-24 03:28N 49°28' W 000°05'0 0.0
2014-Jul-24 02:31N 49°28' W 000°05'0 0.0
2014-Jul-24 01:28N 49°28' W 000°05'0 0.0
2014-Jul-24 00:31N 49°28' W 000°05'0 0.0
2014-Jul-23 23:28N 49°28' W 000°05'0 0.0
2014-Jul-23 22:28N 49°28' W 000°05'1 1.2
2014-Jul-23 21:33N 49°29' W 000°06'1110.8
2014-Jul-23 20:33N 49°39' W 000°10'5012.5
2014-Jul-23 16:33N 50°29' E 000°04'1413.6
2014-Jul-23 15:33N 50°32' E 000°25'1414.3
2014-Jul-23 14:33N 50°38' E 000°45'1514.6
2014-Jul-23 13:33N 50°48' E 001°03'1414.2
2014-Jul-23 12:34N 50°57' E 001°20'1312.8
2014-Jul-23 11:33N 51°06' E 001°35'10 9.7
2014-Jul-23 10:33N 51°02' E 001°50'10 9.9
2014-Jul-23 09:33N 51°03' E 002°05'4 4.3
2014-Jul-23 08:31N 51°00' E 002°11'0 0.0
2014-Jul-23 07:24N 51°00' E 002°11'0 0.0
2014-Jul-23 06:30N 51°00' E 002°11'0 0.0
2014-Jul-23 05:24N 51°00' E 002°11'0 0.0
2014-Jul-23 04:12N 51°00' E 002°11'0 0.0
2014-Jul-23 03:33N 51°00' E 002°11'0 0.0
2014-Jul-23 02:15N 51°00' E 002°11'0 0.0
2014-Jul-23 01:24N 51°00' E 002°11'0 0.0
2014-Jul-23 00:21N 51°00' E 002°11'0 0.0
2014-Jul-22 23:28N 51°00' E 002°11'0 0.0
2014-Jul-22 22:10N 51°00' E 002°11'0 0.0
2014-Jul-22 21:33N 51°00' E 002°11'0 0.0
2014-Jul-22 20:21N 51°00' E 002°11'0 0.0
2014-Jul-22 19:30N 51°00' E 002°11'0 0.0
2014-Jul-22 18:31N 51°00' E 002°11'0 0.0
2014-Jul-22 17:27N 51°00' E 002°11'0 0.0
2014-Jul-22 16:25N 51°00' E 002°11'0 0.0
2014-Jul-22 15:33N 51°00' E 002°11'0 0.0
2014-Jul-22 14:33N 51°00' E 002°11'0 0.0
2014-Jul-22 13:27N 51°00' E 002°11'0 0.0
2014-Jul-22 12:33N 51°00' E 002°11'0 0.0
2014-Jul-22 11:27N 51°00' E 002°11'0 0.0
2014-Jul-22 10:27N 51°00' E 002°11'0 0.0
2014-Jul-22 09:33N 51°00' E 002°11'0 0.0
2014-Jul-22 08:34N 51°00' E 002°11'0 0.0
2014-Jul-22 07:31N 51°00' E 002°11'0 0.0
2014-Jul-22 06:34N 51°00' E 002°11'0 0.0
2014-Jul-22 05:34N 51°00' E 002°11'0 0.0
2014-Jul-22 04:27N 51°00' E 002°11'0 0.0
2014-Jul-22 03:33N 51°00' E 002°11'0 0.0
2014-Jul-22 02:31N 51°00' E 002°11'0 0.0
2014-Jul-22 01:27N 51°00' E 002°11'0 0.0
2014-Jul-22 00:27N 51°00' E 002°11'0 0.0
2014-Jul-21 23:33N 51°00' E 002°11'0 0.0
2014-Jul-21 22:34N 51°00' E 002°11'0 0.0
2014-Jul-21 21:33N 51°00' E 002°11'0 0.0
2014-Jul-21 20:34N 51°00' E 002°11'0 0.0
2014-Jul-21 20:10N 51°00' E 002°11'0 0.0
2014-Jul-21 19:16N 51°00' E 002°11'0 0.0
2014-Jul-21 18:33N 51°00' E 002°11'0 0.0
2014-Jul-21 17:30N 51°00' E 002°11'0 0.0
2014-Jul-21 16:33N 51°00' E 002°11'0 0.0
2014-Jul-21 15:27N 51°00' E 002°11'0 0.0
2014-Jul-21 14:09N 51°00' E 002°11'0 0.0
2014-Jul-21 13:27N 51°00' E 002°11'0 0.0
2014-Jul-21 12:34N 51°00' E 002°11'0 0.0
2014-Jul-21 11:33N 51°00' E 002°11'0 0.0
2014-Jul-21 10:27N 51°00' E 002°11'0 0.0
2014-Jul-21 09:33N 51°00' E 002°11'0 0.0
2014-Jul-21 08:25N 51°00' E 002°11'0 0.0
2014-Jul-21 07:33N 51°00' E 002°11'0 0.0
2014-Jul-21 06:33N 51°00' E 002°11'0 0.0
2014-Jul-21 05:33N 51°00' E 002°11'0 0.0
2014-Jul-21 04:34N 51°00' E 002°11'0 0.0
2014-Jul-21 03:33N 51°00' E 002°11'0 0.0
2014-Jul-21 02:33N 51°00' E 002°11'0 0.0
2014-Jul-21 01:30N 51°00' E 002°11'0 0.0
2014-Jul-21 00:19N 51°00' E 002°11'0 0.0
2014-Jul-20 23:33N 51°00' E 002°11'0 0.0
2014-Jul-20 22:33N 51°00' E 002°11'0 0.0
2014-Jul-20 21:24N 51°00' E 002°11'0 0.0
2014-Jul-20 20:30N 51°00' E 002°11'0 0.0
2014-Jul-20 19:34N 51°00' E 002°11'0 0.0
2014-Jul-20 18:33N 51°00' E 002°11'0 0.0
2014-Jul-20 17:33N 51°00' E 002°11'0 0.0
2014-Jul-20 16:27N 51°00' E 002°11'0 0.0
2014-Jul-20 15:33N 51°00' E 002°11'0 0.0
2014-Jul-20 14:30N 51°00' E 002°11'0 0.0
2014-Jul-20 13:25N 51°00' E 002°11'0 0.0
2014-Jul-20 12:30N 51°00' E 002°11'0 0.0
2014-Jul-20 11:13N 51°00' E 002°11'0 0.0
2014-Jul-20 10:19N 51°00' E 002°11'0 0.0
2014-Jul-20 09:30N 51°00' E 002°11'0 0.0
2014-Jul-20 08:31N 51°00' E 002°11'0 0.0
2014-Jul-20 07:30N 51°00' E 002°11'0 0.0
2014-Jul-20 06:33N 51°00' E 002°11'0 0.0
2014-Jul-20 05:25N 51°00' E 002°11'0 0.0
2014-Jul-20 04:33N 51°00' E 002°11'  
Track history (hours):
 
Tides and Currents Weather Stations Pressure Air Temp Water Temp Dewpoint Dewpoint Depression Visibility Wind Speed Wind Dir Waves Ship Positions

Arklow Mill

Last reported at 2014-Jul-30 04:31 UTC. Time now 2014-Jul-30 07:04 UTC.
Position N 35°53' W 009°30'.

Length 137 m; draft 8.4 m.

Type: Ship. MMSI: 250002022.

Date/timePositionNaut miles runAvg speedWind from/ knotsBaromVisibWave heightAir tempDewpointWater temp
2014-Jul-30 04:31N 35°53' W 009°30'2711.8
2014-Jul-30 02:12N 36°20' W 009°38'3411.8
2014-Jul-29 23:19N 36°53' W 009°48'2112.0
2014-Jul-29 21:33N 37°13' W 009°52'1212.1
2014-Jul-29 20:32N 37°26' W 009°54'1212.2
2014-Jul-29 19:33N 37°38' W 009°56'1412.3
2014-Jul-29 18:26N 37°51' W 009°58'1112.2
2014-Jul-29 17:32N 38°02' W 009°60'2511.8
2014-Jul-29 15:27N 38°27' W 010°04'  
2014-Jul-26 15:33N 49°55' W 001°54'1614.5
2014-Jul-26 14:27N 49°51' W 001°30'1615.8
2014-Jul-26 13:26N 49°46' W 001°06'1314.5
2014-Jul-26 12:33N 49°41' W 000°48'1313.1
2014-Jul-26 11:34N 49°36' W 000°30'1211.8
2014-Jul-26 10:34N 49°31' W 000°13'1111.1
2014-Jul-26 09:33N 49°27' E 000°03'1111.5
2014-Jul-26 08:33N 49°26' E 000°20'8 7.6
2014-Jul-26 07:30N 49°28' E 000°32'5 0.1
2014-Jul-24 06:33N 49°28' E 000°40'1010.5
2014-Jul-24 05:33N 49°27' E 000°24'1313.0
2014-Jul-24 04:33N 49°26' E 000°04'6 5.5
2014-Jul-24 03:28N 49°28' W 000°05'0 0.0
2014-Jul-24 02:31N 49°28' W 000°05'0 0.0
2014-Jul-24 01:28N 49°28' W 000°05'0 0.0
2014-Jul-24 00:31N 49°28' W 000°05'0 0.0
2014-Jul-23 23:28N 49°28' W 000°05'0 0.0
2014-Jul-23 22:28N 49°28' W 000°05'1 1.2
2014-Jul-23 21:33N 49°29' W 000°06'1110.8
2014-Jul-23 20:33N 49°39' W 000°10'5012.5
2014-Jul-23 16:33N 50°29' E 000°04'1413.6
2014-Jul-23 15:33N 50°32' E 000°25'1414.3
2014-Jul-23 14:33N 50°38' E 000°45'1514.6
2014-Jul-23 13:33N 50°48' E 001°03'1414.2
2014-Jul-23 12:34N 50°57' E 001°20'1312.8
2014-Jul-23 11:33N 51°06' E 001°35'10 9.7
2014-Jul-23 10:33N 51°02' E 001°50'10 9.9
2014-Jul-23 09:33N 51°03' E 002°05'4 4.3
2014-Jul-23 08:31N 51°00' E 002°11'0 0.0
2014-Jul-23 07:24N 51°00' E 002°11'0 0.0
2014-Jul-23 06:30N 51°00' E 002°11'0 0.0
2014-Jul-23 05:24N 51°00' E 002°11'0 0.0
2014-Jul-23 04:12N 51°00' E 002°11'0 0.0
2014-Jul-23 03:33N 51°00' E 002°11'0 0.0
2014-Jul-23 02:15N 51°00' E 002°11'0 0.0
2014-Jul-23 01:24N 51°00' E 002°11'0 0.0
2014-Jul-23 00:21N 51°00' E 002°11'0 0.0
2014-Jul-22 23:28N 51°00' E 002°11'0 0.0
2014-Jul-22 22:10N 51°00' E 002°11'0 0.0
2014-Jul-22 21:33N 51°00' E 002°11'0 0.0
2014-Jul-22 20:21N 51°00' E 002°11'0 0.0
2014-Jul-22 19:30N 51°00' E 002°11'0 0.0
2014-Jul-22 18:31N 51°00' E 002°11'0 0.0
2014-Jul-22 17:27N 51°00' E 002°11'0 0.0
2014-Jul-22 16:25N 51°00' E 002°11'0 0.0
2014-Jul-22 15:33N 51°00' E 002°11'0 0.0
2014-Jul-22 14:33N 51°00' E 002°11'0 0.0
2014-Jul-22 13:27N 51°00' E 002°11'0 0.0
2014-Jul-22 12:33N 51°00' E 002°11'0 0.0
2014-Jul-22 11:27N 51°00' E 002°11'0 0.0
2014-Jul-22 10:27N 51°00' E 002°11'0 0.0
2014-Jul-22 09:33N 51°00' E 002°11'0 0.0
2014-Jul-22 08:34N 51°00' E 002°11'0 0.0
2014-Jul-22 07:31N 51°00' E 002°11'0 0.0
2014-Jul-22 06:34N 51°00' E 002°11'0 0.0
2014-Jul-22 05:34N 51°00' E 002°11'0 0.0
2014-Jul-22 04:27N 51°00' E 002°11'0 0.0
2014-Jul-22 03:33N 51°00' E 002°11'0 0.0
2014-Jul-22 02:31N 51°00' E 002°11'0 0.0
2014-Jul-22 01:27N 51°00' E 002°11'0 0.0
2014-Jul-22 00:27N 51°00' E 002°11'0 0.0
2014-Jul-21 23:33N 51°00' E 002°11'0 0.0
2014-Jul-21 22:34N 51°00' E 002°11'0 0.0
2014-Jul-21 21:33N 51°00' E 002°11'0 0.0
2014-Jul-21 20:34N 51°00' E 002°11'0 0.0
2014-Jul-21 20:10N 51°00' E 002°11'0 0.0
2014-Jul-21 19:16N 51°00' E 002°11'0 0.0
2014-Jul-21 18:33N 51°00' E 002°11'0 0.0
2014-Jul-21 17:30N 51°00' E 002°11'0 0.0
2014-Jul-21 16:33N 51°00' E 002°11'0 0.0
2014-Jul-21 15:27N 51°00' E 002°11'0 0.0
2014-Jul-21 14:09N 51°00' E 002°11'0 0.0
2014-Jul-21 13:27N 51°00' E 002°11'0 0.0
2014-Jul-21 12:34N 51°00' E 002°11'0 0.0
2014-Jul-21 11:33N 51°00' E 002°11'0 0.0
2014-Jul-21 10:27N 51°00' E 002°11'0 0.0
2014-Jul-21 09:33N 51°00' E 002°11'0 0.0
2014-Jul-21 08:25N 51°00' E 002°11'0 0.0
2014-Jul-21 07:33N 51°00' E 002°11'0 0.0
2014-Jul-21 06:33N 51°00' E 002°11'0 0.0
2014-Jul-21 05:33N 51°00' E 002°11'0 0.0
2014-Jul-21 04:34N 51°00' E 002°11'0 0.0
2014-Jul-21 03:33N 51°00' E 002°11'0 0.0
2014-Jul-21 02:33N 51°00' E 002°11'0 0.0
2014-Jul-21 01:30N 51°00' E 002°11'0 0.0
2014-Jul-21 00:19N 51°00' E 002°11'0 0.0
2014-Jul-20 23:33N 51°00' E 002°11'0 0.0
2014-Jul-20 22:33N 51°00' E 002°11'0 0.0
2014-Jul-20 21:24N 51°00' E 002°11'0 0.0
2014-Jul-20 20:30N 51°00' E 002°11'0 0.0
2014-Jul-20 19:34N 51°00' E 002°11'0 0.0
2014-Jul-20 18:33N 51°00' E 002°11'0 0.0
2014-Jul-20 17:33N 51°00' E 002°11'0 0.0
2014-Jul-20 16:27N 51°00' E 002°11'0 0.0
2014-Jul-20 15:33N 51°00' E 002°11'0 0.0
2014-Jul-20 14:30N 51°00' E 002°11'0 0.0
2014-Jul-20 13:25N 51°00' E 002°11'0 0.0
2014-Jul-20 12:30N 51°00' E 002°11'0 0.0
2014-Jul-20 11:13N 51°00' E 002°11'0 0.0
2014-Jul-20 10:19N 51°00' E 002°11'0 0.0
2014-Jul-20 09:30N 51°00' E 002°11'0 0.0
2014-Jul-20 08:31N 51°00' E 002°11'0 0.0
2014-Jul-20 07:30N 51°00' E 002°11'0 0.0
2014-Jul-20 06:33N 51°00' E 002°11'0 0.0
2014-Jul-20 05:25N 51°00' E 002°11'0 0.0
2014-Jul-20 04:33N 51°00' E 002°11'  

Dump ship's entire track history